< < Back
Terminal Aerodrome Forecast


Current Version              Previous Versions:   1  2  3  4  5  6  7  8  9  

Terminal Aerodrome Forecast

513
FTUS42 KMLB 240500
TAFDAB
TAF
KDAB 240532Z 2406/2506 VRB02KT P6SM SKC
      TEMPO 2409/2412 5SM BR SCT007
     FM241500 12005KT P6SM FEW030
     FM241800 11010KT P6SM FEW040=



Latest METAR

368
SAUS80 KWBC 250700 RRA
MTRDAB
METAR KDAB 250653Z 00000KT 9SM FEW100 21/19 A2994 RMK AO2 SLP138
T02060189


USA.gov is the U.S. government's official web portal to all federal, state and local government web resources and services.